createdAt,value
2022-10-01T00:01:17.273Z,12.93
2022-10-01T00:03:44.661Z,12.90
2022-10-01T00:06:16.628Z,12.88
2022-10-01T00:08:45.723Z,12.84
2022-10-01T00:11:15.722Z,12.82
2022-10-01T00:13:43.257Z,12.79
2022-10-01T00:16:13.555Z,12.77
2022-10-01T00:18:42.307Z,12.76
2022-10-01T00:21:11.609Z,12.73
2022-10-01T00:23:38.601Z,12.69
2022-10-01T00:26:18.345Z,12.67
2022-10-01T00:28:47.071Z,12.65
2022-10-01T00:31:15.433Z,12.63
2022-10-01T00:33:42.881Z,12.62
2022-10-01T00:36:10.923Z,12.61
2022-10-01T00:38:40.311Z,12.60
2022-10-01T00:41:08.007Z,12.58
2022-10-01T00:43:42.971Z,12.56
2022-10-01T00:46:34.230Z,12.47
2022-10-01T00:49:07.243Z,12.51
2022-10-01T00:51:40.036Z,12.49
2022-10-01T00:54:13.336Z,12.47
2022-10-01T00:56:41.424Z,12.47
2022-10-01T00:59:08.261Z,12.45
2022-10-01T01:01:37.541Z,12.45
2022-10-01T01:04:16.247Z,12.42
2022-10-01T01:06:55.809Z,12.40
2022-10-01T01:09:26.676Z,12.39
2022-10-01T01:12:01.504Z,12.38
2022-10-01T01:14:40.253Z,12.36
2022-10-01T01:17:12.756Z,12.33
2022-10-01T01:22:21.299Z,12.33
2022-10-01T01:25:04.933Z,12.28
2022-10-01T01:30:15.788Z,12.28
2022-10-01T01:32:55.305Z,12.27
2022-10-01T01:35:28.097Z,12.25
2022-10-01T01:37:59.024Z,12.26
2022-10-01T01:40:27.146Z,12.25
2022-10-01T01:42:56.101Z,12.23
2022-10-01T01:45:28.783Z,12.22
2022-10-01T01:47:58.913Z,12.20
2022-10-01T01:50:26.381Z,12.03
2022-10-01T01:52:54.368Z,12.13
2022-10-01T01:55:24.709Z,12.15
2022-10-01T01:57:51.571Z,12.13
2022-10-01T02:00:23.710Z,12.11
2022-10-01T02:02:53.770Z,12.10
2022-10-01T02:05:26.019Z,12.07
2022-10-01T02:13:50.484Z,11.99
2022-10-01T02:27:12.351Z,11.93
2022-10-01T02:29:40.534Z,11.93
2022-10-01T02:32:09.604Z,11.91
2022-10-01T02:34:37.403Z,11.89
2022-10-01T02:37:06.566Z,11.89
2022-10-01T02:39:34.877Z,11.87
2022-10-01T02:42:04.896Z,11.86
2022-10-01T02:44:38.066Z,11.67
2022-10-01T02:47:28.435Z,11.71
2022-10-01T02:49:55.109Z,11.73
2022-10-01T02:57:37.680Z,11.70
2022-10-01T03:00:09.054Z,11.69
2022-10-01T03:02:35.676Z,11.68
2022-10-01T03:05:02.530Z,11.66
2022-10-01T03:07:31.539Z,11.65
2022-10-01T03:09:58.375Z,11.64
2022-10-01T03:12:25.158Z,11.62
2022-10-01T03:14:51.740Z,11.62
2022-10-01T03:17:18.374Z,11.61
2022-10-01T03:19:45.413Z,11.60
2022-10-01T03:22:14.758Z,11.60
2022-10-01T03:24:41.326Z,11.59
2022-10-01T03:27:07.848Z,11.57
2022-10-01T03:29:34.382Z,11.59
2022-10-01T03:32:01.168Z,11.60
2022-10-01T03:34:27.769Z,11.62
2022-10-01T03:36:54.400Z,11.64
2022-10-01T03:39:20.955Z,11.66
2022-10-01T03:41:47.503Z,11.67
2022-10-01T03:44:14.065Z,11.66
2022-10-01T03:46:40.623Z,11.64
2022-10-01T03:49:07.188Z,11.63
2022-10-01T03:51:34.033Z,11.62
2022-10-01T03:54:00.760Z,11.59
2022-10-01T03:56:28.083Z,11.57
2022-10-01T03:58:54.669Z,11.54
2022-10-01T04:01:21.894Z,11.52
2022-10-01T04:03:50.258Z,11.49
2022-10-01T04:06:17.069Z,11.46
2022-10-01T04:08:43.900Z,11.45
2022-10-01T04:11:11.123Z,11.41
2022-10-01T04:13:37.873Z,11.39
2022-10-01T04:16:05.950Z,11.37
2022-10-01T04:18:33.163Z,11.35
2022-10-01T04:20:59.742Z,11.31
2022-10-01T04:23:26.620Z,11.30
2022-10-01T04:25:53.387Z,11.27
2022-10-01T04:28:20.330Z,11.26
2022-10-01T04:30:47.045Z,11.25
2022-10-01T04:33:16.466Z,11.24
2022-10-01T04:35:43.705Z,11.22
2022-10-01T04:38:15.352Z,11.22
2022-10-01T04:40:42.043Z,11.20
2022-10-01T04:43:09.696Z,11.18
2022-10-01T04:45:37.937Z,11.16
2022-10-01T04:48:05.301Z,11.13
2022-10-01T04:50:32.413Z,11.12
2022-10-01T04:52:59.219Z,11.10
2022-10-01T04:55:25.816Z,11.10
2022-10-01T04:57:52.556Z,11.08
2022-10-01T05:00:22.013Z,11.08
2022-10-01T05:02:50.190Z,11.05
2022-10-01T05:05:18.610Z,11.04
2022-10-01T05:07:45.484Z,11.04
2022-10-01T05:10:14.690Z,11.04
2022-10-01T05:12:42.112Z,11.04
2022-10-01T05:15:09.585Z,11.04
2022-10-01T05:17:36.305Z,11.08
2022-10-01T05:20:05.154Z,11.09
2022-10-01T05:22:32.145Z,11.09
2022-10-01T05:25:00.250Z,11.10
2022-10-01T05:27:27.604Z,11.12
2022-10-01T05:29:54.328Z,11.12
2022-10-01T05:32:20.870Z,11.15
2022-10-01T05:34:52.664Z,11.15
2022-10-01T05:37:20.058Z,11.15
2022-10-01T05:39:46.701Z,11.17
2022-10-01T05:42:13.277Z,11.15
2022-10-01T05:44:45.926Z,11.14
2022-10-01T05:47:14.132Z,11.15
2022-10-01T05:49:42.961Z,11.14
2022-10-01T05:52:10.977Z,11.14
2022-10-01T05:54:37.904Z,11.12
2022-10-01T05:57:05.321Z,11.12
2022-10-01T05:59:32.266Z,11.12
2022-10-01T06:01:59.044Z,11.10
2022-10-01T06:04:26.044Z,11.10
2022-10-01T06:06:54.150Z,11.08
2022-10-01T06:09:20.688Z,11.08
2022-10-01T06:11:48.982Z,11.07
2022-10-01T06:14:16.244Z,11.04
2022-10-01T06:16:42.960Z,11.04
2022-10-01T06:19:09.624Z,11.05
2022-10-01T06:21:36.616Z,11.04
2022-10-01T06:24:03.685Z,11.04
2022-10-01T06:26:30.228Z,11.06
2022-10-01T06:28:56.985Z,11.05
2022-10-01T06:31:23.648Z,11.07
2022-10-01T06:33:50.241Z,11.08
2022-10-01T06:36:16.778Z,11.10
2022-10-01T06:38:43.436Z,11.12
2022-10-01T06:41:10.204Z,11.14
2022-10-01T06:43:36.803Z,11.16
2022-10-01T06:46:05.098Z,11.19
2022-10-01T06:48:32.532Z,11.22
2022-10-01T06:50:59.673Z,11.25
2022-10-01T06:53:28.051Z,11.29
2022-10-01T06:55:55.510Z,11.32
2022-10-01T06:58:26.306Z,11.36
2022-10-01T07:00:58.998Z,11.38
2022-10-01T07:03:25.831Z,11.43
2022-10-01T07:05:52.598Z,11.47
2022-10-01T07:08:19.160Z,11.52
2022-10-01T07:10:45.840Z,11.56
2022-10-01T07:13:16.631Z,11.65
2022-10-01T07:15:43.780Z,11.68
2022-10-01T07:18:10.793Z,11.76
2022-10-01T07:20:40.451Z,11.83
2022-10-01T07:23:10.670Z,11.91
2022-10-01T07:25:38.928Z,11.99
2022-10-01T07:28:07.262Z,12.07
2022-10-01T07:30:34.343Z,12.14
2022-10-01T07:33:00.835Z,12.25
2022-10-01T07:35:28.498Z,12.32
2022-10-01T07:37:55.441Z,12.43
2022-10-01T07:40:22.110Z,12.51
2022-10-01T07:42:56.532Z,12.62
2022-10-01T07:45:23.713Z,12.76
2022-10-01T07:47:56.020Z,12.88
2022-10-01T07:50:23.335Z,12.96
2022-10-01T07:52:53.148Z,13.03
2022-10-01T07:55:20.695Z,13.10
2022-10-01T07:57:56.956Z,13.18
2022-10-01T08:00:25.660Z,13.37
2022-10-01T08:02:56.124Z,13.75
2022-10-01T08:05:25.345Z,14.26
2022-10-01T08:07:52.380Z,14.81
2022-10-01T08:10:20.782Z,15.24
2022-10-01T08:12:47.330Z,15.50
2022-10-01T08:15:16.966Z,15.76
2022-10-01T08:17:44.653Z,16.05
2022-10-01T08:20:13.800Z,16.65
2022-10-01T08:22:42.366Z,17.54
2022-10-01T08:25:09.464Z,18.47
2022-10-01T08:27:36.630Z,19.33
2022-10-01T08:30:04.027Z,20.04
2022-10-01T08:32:31.270Z,20.76
2022-10-01T08:34:59.017Z,21.47
2022-10-01T08:37:27.604Z,22.16
2022-10-01T08:39:55.262Z,22.84
2022-10-01T08:45:20.277Z,24.05
2022-10-01T08:47:55.509Z,24.51
2022-10-01T08:53:04.910Z,25.33
2022-10-01T08:55:36.617Z,25.70
2022-10-01T08:58:10.024Z,26.11
2022-10-01T09:00:41.811Z,26.53
2022-10-01T09:03:13.730Z,26.88
2022-10-01T09:11:12.315Z,27.67
2022-10-01T09:19:55.039Z,28.34
2022-10-01T09:25:27.509Z,28.57
2022-10-01T09:28:02.385Z,28.61
2022-10-01T09:30:30.201Z,28.57
2022-10-01T09:35:52.741Z,28.64
2022-10-01T09:40:59.514Z,29.03
2022-10-01T09:43:29.968Z,29.03
2022-10-01T09:45:57.462Z,29.19
2022-10-01T09:48:33.006Z,29.34
2022-10-01T09:51:08.285Z,29.40
2022-10-01T09:53:41.320Z,29.48
2022-10-01T09:56:13.540Z,29.45
2022-10-01T09:58:47.675Z,29.45
2022-10-01T10:01:21.869Z,29.59
2022-10-01T10:03:57.677Z,29.80
2022-10-01T10:06:28.212Z,29.77
2022-10-01T10:08:57.349Z,29.73
2022-10-01T10:11:27.518Z,29.58
2022-10-01T10:13:59.637Z,29.31
2022-10-01T10:19:10.384Z,28.89
2022-10-01T10:21:37.890Z,28.81
2022-10-01T10:24:07.451Z,28.76
2022-10-01T10:26:39.593Z,28.50
2022-10-01T10:29:09.387Z,28.41
2022-10-01T10:31:45.752Z,28.40
2022-10-01T10:36:48.526Z,27.68
2022-10-01T10:39:22.874Z,27.34
2022-10-01T10:41:51.991Z,27.00
2022-10-01T10:44:21.557Z,26.65
2022-10-01T10:46:50.474Z,26.27
2022-10-01T10:49:26.241Z,25.86
2022-10-01T10:51:54.134Z,25.39
2022-10-01T10:54:25.921Z,25.18
2022-10-01T10:56:54.304Z,24.84
2022-10-01T10:59:20.941Z,24.53
2022-10-01T11:01:49.554Z,24.32
2022-10-01T11:04:35.074Z,24.05
2022-10-01T11:07:01.761Z,23.78
2022-10-01T11:09:40.238Z,23.51
2022-10-01T11:37:06.228Z,21.68
2022-10-01T11:39:35.134Z,21.63
2022-10-01T11:42:07.955Z,21.55
2022-10-01T11:44:41.801Z,21.48
2022-10-01T11:47:16.396Z,21.44
2022-10-01T11:55:38.202Z,21.45
2022-10-01T12:00:48.706Z,21.42
2022-10-01T12:03:21.587Z,21.32
2022-10-01T12:05:50.035Z,21.22
2022-10-01T12:08:24.318Z,21.12
2022-10-01T12:13:33.656Z,21.00
2022-10-01T12:16:14.538Z,20.86
2022-10-01T12:19:03.325Z,20.87
2022-10-01T12:21:37.797Z,20.89
2022-10-01T12:27:20.893Z,21.04
2022-10-01T12:35:18.329Z,20.71
2022-10-01T12:41:10.457Z,20.41
2022-10-01T12:43:53.832Z,20.31
2022-10-01T12:46:55.405Z,20.18
2022-10-01T12:52:39.661Z,19.94
2022-10-01T12:58:51.254Z,19.95
2022-10-01T13:01:26.217Z,19.88
2022-10-01T13:10:00.330Z,19.91
2022-10-01T13:13:08.195Z,20.00
2022-10-01T13:15:38.798Z,20.29
2022-10-01T13:32:00.768Z,20.80
2022-10-01T13:37:17.733Z,21.02
2022-10-01T13:39:45.941Z,21.16
2022-10-01T13:42:20.486Z,21.26
2022-10-01T13:44:53.483Z,21.34
2022-10-01T13:47:21.636Z,21.43
2022-10-01T13:50:01.060Z,21.40
2022-10-01T13:52:28.107Z,21.39
2022-10-01T13:54:56.489Z,21.30
2022-10-01T13:57:39.203Z,21.17
2022-10-01T14:05:43.498Z,21.09
2022-10-01T14:11:14.776Z,20.88
2022-10-01T14:14:07.796Z,20.73
2022-10-01T14:16:45.756Z,20.60
2022-10-01T14:19:22.109Z,20.57
2022-10-01T14:25:22.418Z,20.38
2022-10-01T14:28:10.937Z,20.33
2022-10-01T14:31:01.110Z,20.21
2022-10-01T14:36:56.037Z,20.14
2022-10-01T14:39:29.270Z,20.24
2022-10-01T14:41:57.764Z,20.29
2022-10-01T14:44:30.403Z,20.23
2022-10-01T14:46:58.962Z,20.17
2022-10-01T14:49:28.959Z,20.11
2022-10-01T14:52:03.172Z,20.05
2022-10-01T14:54:39.172Z,19.97
2022-10-01T14:57:09.702Z,19.68
2022-10-01T14:59:41.594Z,19.75
2022-10-01T15:02:19.230Z,19.63
2022-10-01T15:04:47.887Z,19.60
2022-10-01T15:07:17.211Z,19.53
2022-10-01T15:09:46.039Z,19.52
2022-10-01T15:12:15.105Z,19.52
2022-10-01T15:14:42.757Z,19.50
2022-10-01T15:17:19.424Z,19.46
2022-10-01T15:19:47.326Z,19.44
2022-10-01T15:22:16.341Z,19.38
2022-10-01T15:24:47.358Z,19.35
2022-10-01T15:27:17.625Z,19.27
2022-10-01T15:29:44.812Z,19.20
2022-10-01T15:32:15.970Z,19.20
2022-10-01T15:34:47.589Z,19.21
2022-10-01T15:37:22.529Z,19.19
2022-10-01T15:39:51.820Z,19.18
2022-10-01T15:42:30.533Z,19.07
2022-10-01T15:47:58.177Z,19.33
2022-10-01T15:53:07.077Z,18.97
2022-10-01T15:55:40.189Z,18.95
2022-10-01T16:03:24.169Z,18.91
2022-10-01T16:05:54.933Z,18.90
2022-10-01T16:08:25.630Z,18.87
2022-10-01T16:11:16.158Z,18.83
2022-10-01T16:13:45.477Z,18.93
2022-10-01T16:18:54.172Z,18.95
2022-10-01T16:21:22.121Z,18.94
2022-10-01T16:23:53.036Z,18.93
2022-10-01T16:29:17.250Z,18.85
2022-10-01T16:31:45.398Z,18.78
2022-10-01T16:34:14.331Z,18.74
2022-10-01T16:36:41.087Z,18.69
2022-10-01T16:39:08.368Z,18.69
2022-10-01T16:41:35.536Z,18.62
2022-10-01T16:44:05.322Z,18.56
2022-10-01T16:46:33.437Z,18.53
2022-10-01T16:49:00.323Z,18.47
2022-10-01T16:51:27.160Z,18.44
2022-10-01T16:53:55.045Z,18.36
2022-10-01T16:56:26.905Z,18.30
2022-10-01T16:58:53.829Z,18.21
2022-10-01T17:01:20.424Z,18.13
2022-10-01T17:03:47.032Z,18.10
2022-10-01T17:06:13.604Z,18.05
2022-10-01T17:08:40.150Z,17.99
2022-10-01T17:11:10.637Z,17.95
2022-10-01T17:13:39.074Z,17.91
2022-10-01T17:16:05.932Z,17.89
2022-10-01T17:18:32.654Z,17.87
2022-10-01T17:20:59.588Z,17.82
2022-10-01T17:23:26.136Z,17.78
2022-10-01T17:25:52.943Z,17.71
2022-10-01T17:28:20.375Z,17.66
2022-10-01T17:30:48.819Z,17.60
2022-10-01T17:33:19.158Z,17.52
2022-10-01T17:35:51.767Z,17.42
2022-10-01T17:38:19.339Z,17.33
2022-10-01T17:40:46.103Z,17.26
2022-10-01T17:43:14.584Z,17.21
2022-10-01T17:45:41.455Z,17.15
2022-10-01T17:48:08.907Z,17.11
2022-10-01T17:50:35.750Z,17.10
2022-10-01T17:53:02.299Z,17.07
2022-10-01T17:55:28.907Z,17.04
2022-10-01T17:57:55.699Z,16.99
2022-10-01T18:00:22.302Z,16.95
2022-10-01T18:02:48.900Z,16.92
2022-10-01T18:05:17.217Z,16.89
2022-10-01T18:07:43.922Z,16.85
2022-10-01T18:10:12.836Z,16.82
2022-10-01T18:12:40.177Z,16.79
2022-10-01T18:15:07.266Z,16.73
2022-10-01T18:17:36.326Z,16.66
2022-10-01T18:20:06.160Z,16.57
2022-10-01T18:22:33.330Z,16.48
2022-10-01T18:24:59.888Z,16.39
2022-10-01T18:27:26.483Z,16.34
2022-10-01T18:29:53.718Z,16.27
2022-10-01T18:32:25.399Z,16.21
2022-10-01T18:35:01.490Z,16.10
2022-10-01T18:45:38.810Z,15.91
2022-10-01T18:56:40.751Z,15.77
2022-10-01T19:07:37.866Z,15.52
2022-10-01T19:18:42.790Z,15.37
2022-10-01T19:32:21.771Z,15.19
2022-10-01T19:40:12.641Z,15.23
2022-10-01T19:42:42.175Z,15.15
2022-10-01T19:45:33.360Z,15.02
2022-10-01T19:48:39.718Z,14.98
2022-10-01T19:51:12.391Z,14.98
2022-10-01T19:53:43.925Z,14.95
2022-10-01T19:56:18.715Z,14.92
2022-10-01T19:58:45.812Z,14.87
2022-10-01T20:01:19.762Z,14.86
2022-10-01T20:03:57.540Z,14.81
2022-10-01T20:09:08.380Z,14.78
2022-10-01T20:14:46.348Z,14.73
2022-10-01T20:17:25.138Z,14.68
2022-10-01T20:20:03.694Z,14.66
2022-10-01T20:28:40.651Z,14.90
2022-10-01T20:31:17.870Z,14.70
2022-10-01T20:33:59.121Z,14.65
2022-10-01T20:36:36.442Z,14.62
2022-10-01T20:39:12.897Z,14.61
2022-10-01T20:41:45.782Z,14.56
2022-10-01T20:44:17.360Z,14.54
2022-10-01T20:46:49.030Z,14.49
2022-10-01T20:49:24.712Z,14.46
2022-10-01T20:52:03.832Z,14.43
2022-10-01T20:54:36.875Z,14.44
2022-10-01T20:59:51.389Z,14.42
2022-10-01T21:02:42.361Z,14.39
2022-10-01T21:05:17.846Z,14.45
2022-10-01T21:10:36.609Z,14.48
2022-10-01T21:21:45.021Z,14.77
2022-10-01T21:27:26.266Z,14.61
2022-10-01T21:35:25.197Z,14.62
2022-10-01T21:38:10.148Z,14.59
2022-10-01T21:46:38.837Z,14.57
2022-10-01T21:49:14.206Z,14.57
2022-10-01T21:58:01.355Z,14.52
2022-10-01T22:00:29.880Z,14.58
2022-10-01T22:10:57.965Z,14.57
2022-10-01T22:13:30.045Z,14.55
2022-10-01T22:16:01.294Z,14.54
2022-10-01T22:18:49.335Z,14.48
2022-10-01T22:21:38.302Z,14.47
2022-10-01T22:24:09.904Z,14.52
2022-10-01T22:26:42.625Z,14.52
2022-10-01T22:29:16.129Z,14.52
2022-10-01T22:31:45.892Z,14.50
2022-10-01T22:34:17.402Z,14.49
2022-10-01T22:36:51.017Z,14.44
2022-10-01T22:42:14.321Z,14.34
2022-10-01T22:44:41.130Z,14.32
2022-10-01T23:04:10.628Z,14.02
2022-10-01T23:09:29.272Z,14.35
2022-10-01T23:11:59.708Z,13.95
2022-10-01T23:14:45.720Z,13.97
2022-10-01T23:17:20.418Z,13.97
2022-10-01T23:41:32.941Z,13.72
2022-10-01T23:44:11.616Z,13.71
2022-10-01T23:46:42.554Z,13.70
2022-10-01T23:49:18.569Z,13.62
2022-10-01T23:51:56.683Z,13.59
2022-10-01T23:54:30.953Z,13.58
2022-10-01T23:57:25.896Z,13.47
